»·PEaware :: N1399 KVUO-74S

N1399 :: KVUO-74S

FLIGHT INFORMATION

Flight Status: Arrived
Operator: Privately registered:
United States
More flights under this callsign
Pilot: David C. (16084)
Aircraft: Unknown
(EPIC)
More flights by this aircraft type
Origin: KVUO Pearson
United States
Destination: 74S Anacortes
United States
More flights between these airports :: More routes between these airports
Route: BTG V495 SEA V23 PAE
File this flight plan on PilotEdge
Remarks:
Altitude:
(Current/Filed)
25,000ft
Speed:
(Current/Filed)
317kts
Departed: 27-May-20 11:38 AM
Arrived: 27-May-20 12:24 PM
Distance/Time
Traveled:
173nm/0:46
Distance/Time
To Go:
Arrived

Flight Plot

Page will automatically refresh every two minutes.


Map Options




Map Legend


Flown Route
Filed Route
Departure Airport
Arrival Airport
Navaid (VOR, NDB)
Fix

Horizontal Profiles

Position Reports

Time Latitude Longitude Heading Altitude Ground
Speed
27-May-20 11:12 45.621471 -122.654042 183 26ft 0kts
27-May-20 11:13 45.621471 -122.654042 183 26ft 0kts
27-May-20 11:14 45.621471 -122.654042 183 26ft 0kts
27-May-20 11:15 45.621471 -122.654042 183 26ft 0kts
27-May-20 11:16 45.621471 -122.654042 183 26ft 0kts
27-May-20 11:17 45.621471 -122.654042 183 26ft 0kts
27-May-20 11:18 45.621471 -122.654042 183 26ft 0kts
27-May-20 11:19 45.621471 -122.654042 183 26ft 0kts
27-May-20 11:20 45.621471 -122.654042 183 26ft 0kts
27-May-20 11:21 45.621471 -122.654042 183 26ft 0kts
27-May-20 11:22 45.621471 -122.654042 183 26ft 0kts
27-May-20 11:23 45.621471 -122.654042 183 26ft 0kts
27-May-20 11:24 45.621471 -122.654042 183 26ft 0kts
27-May-20 11:25 45.621471 -122.654042 183 26ft 0kts
27-May-20 11:26 45.621471 -122.654042 183 26ft 0kts
27-May-20 11:27 45.621471 -122.654042 183 26ft 0kts
27-May-20 11:28 45.621471 -122.654042 183 26ft 0kts
27-May-20 11:29 45.621471 -122.654042 183 26ft 0kts
27-May-20 11:30 45.621260 -122.653559 91 25ft 6kts
27-May-20 11:31 45.620380 -122.651320 101 25ft 8kts
27-May-20 11:32 45.620416 -122.650643 95 25ft 0kts
27-May-20 11:33 45.620416 -122.650643 95 25ft 0kts
27-May-20 11:34 45.620416 -122.650643 95 25ft 0kts
27-May-20 11:35 45.620416 -122.650643 95 25ft 0kts
27-May-20 11:36 45.619835 -122.650417 267 25ft 4kts
27-May-20 11:37 45.622247 -122.675131 277 562ft 159kts
27-May-20 11:38 45.653860 -122.721932 8 1972ft 219kts
27-May-20 11:39 45.715640 -122.706578 8 2592ft 225kts
27-May-20 11:40 45.778298 -122.689890 19 4596ft 234kts
27-May-20 11:41 45.806202 -122.606277 70 6611ft 244kts
27-May-20 11:42 45.856945 -122.572715 359 8675ft 237kts
27-May-20 11:43 45.924905 -122.562795 4 10694ft 253kts
27-May-20 11:44 45.995706 -122.551245 4 12700ft 260kts
27-May-20 11:45 46.067784 -122.539457 3 14701ft 263kts
27-May-20 11:46 46.137426 -122.528060 2 16621ft 265kts
27-May-20 11:47 46.209999 -122.516124 2 18625ft 262kts
27-May-20 11:48 46.283866 -122.503957 1 20656ft 270kts
27-May-20 11:49 46.358979 -122.491537 0 22549ft 273kts
27-May-20 11:50 46.436148 -122.478739 0 24018ft 280kts
27-May-20 11:51 46.515232 -122.465588 0 25181ft 288kts
27-May-20 11:52 46.600067 -122.451440 0 25214ft 316kts
27-May-20 11:53 46.690096 -122.436356 0 25212ft 326kts
27-May-20 11:54 46.781624 -122.420983 0 25211ft 329kts
27-May-20 11:55 46.873665 -122.405472 0 25211ft 330kts
27-May-20 11:56 46.965349 -122.389953 0 25211ft 330kts
27-May-20 11:57 47.057746 -122.374286 359 25051ft 334kts
27-May-20 11:58 47.146762 -122.359125 0 23610ft 328kts
27-May-20 11:59 47.235403 -122.343986 1 22181ft 327kts
27-May-20 12:00 47.319121 -122.329662 1 20836ft 335kts
27-May-20 12:01 47.411990 -122.313666 2 19346ft 344kts
27-May-20 12:02 47.507059 -122.304950 358 17824ft 337kts
27-May-20 12:03 47.599640 -122.298894 359 16347ft 326kts
27-May-20 12:04 47.687960 -122.293091 359 15958ft 300kts
27-May-20 12:05 47.774004 -122.287467 359 15975ft 313kts
27-May-20 12:06 47.863404 -122.281536 359 14149ft 320kts
27-May-20 12:07 47.949473 -122.297660 335 12012ft 307kts
27-May-20 12:08 48.027132 -122.348398 335 10003ft 292kts
27-May-20 12:09 48.100604 -122.396956 335 9971ft 288kts
27-May-20 12:10 48.169191 -122.442418 334 9996ft 288kts
27-May-20 12:11 48.239188 -122.498817 330 8110ft 289kts
27-May-20 12:12 48.310020 -122.549705 335 6453ft 261kts
27-May-20 12:13 48.377902 -122.584839 343 6698ft 252kts
27-May-20 12:14 48.447750 -122.622453 339 4814ft 246kts
27-May-20 12:15 48.518477 -122.628654 355 5316ft 266kts
27-May-20 12:16 48.584489 -122.653604 310 3063ft 232kts
27-May-20 12:17 48.572698 -122.719558 202 2268ft 175kts
27-May-20 12:18 48.527995 -122.719214 135 1020ft 156kts
27-May-20 12:19 48.493834 -122.696344 224 1213ft 144kts
27-May-20 12:20 48.462376 -122.708125 128 1150ft 130kts
27-May-20 12:21 48.478002 -122.673592 16 722ft 104kts
27-May-20 12:22 48.500399 -122.661499 21 243ft 44kts
27-May-20 12:23 48.500220 -122.660869 200 243ft 13kts
27-May-20 12:24 48.497337 -122.661548 169 246ft 13kts
27-May-20 12:25 48.496966 -122.661886 281 245ft 0kts
27-May-20 12:30 48.497676 -122.661534 289 249ft 0kts
27-May-20 12:31 48.497676 -122.661534 289 249ft 0kts
27-May-20 12:33 48.497676 -122.661534 289 249ft 0kts
27-May-20 12:34 48.497676 -122.661534 289 249ft 0kts
27-May-20 12:35 48.497676 -122.661534 289 249ft 0kts
27-May-20 12:36 48.497676 -122.661534 289 249ft 0kts
27-May-20 12:37 48.497676 -122.661534 289 249ft 0kts
27-May-20 12:38 48.497676 -122.661534 289 249ft 0kts

Navigation Log

Ident Type
Flight plan parsing failed, navigation log unavailable